sensor_id;sensor_type;location;lat;lon;timestamp;P1;durP1;ratioP1;P2;durP2;ratioP2
65871;SDS011;52653;50.080;21.992;2023-05-27T00:00:10;11.10;;;5.20;;
65871;SDS011;52653;50.080;21.992;2023-05-27T00:03:25;10.50;;;4.70;;
65871;SDS011;52653;50.080;21.992;2023-05-27T00:06:18;9.60;;;4.40;;
65871;SDS011;52653;50.080;21.992;2023-05-27T00:09:13;11.10;;;4.70;;
65871;SDS011;52653;50.080;21.992;2023-05-27T00:12:06;10.50;;;4.90;;
65871;SDS011;52653;50.080;21.992;2023-05-27T00:15:00;9.40;;;4.90;;
65871;SDS011;52653;50.080;21.992;2023-05-27T00:17:54;12.20;;;5.10;;
65871;SDS011;52653;50.080;21.992;2023-05-27T00:20:46;11.40;;;5.20;;
65871;SDS011;52653;50.080;21.992;2023-05-27T00:23:41;11.30;;;5.60;;
65871;SDS011;52653;50.080;21.992;2023-05-27T00:26:35;14.00;;;5.20;;
65871;SDS011;52653;50.080;21.992;2023-05-27T00:29:28;11.80;;;5.00;;
65871;SDS011;52653;50.080;21.992;2023-05-27T00:32:21;11.50;;;5.30;;
65871;SDS011;52653;50.080;21.992;2023-05-27T00:35:14;9.80;;;4.60;;
65871;SDS011;52653;50.080;21.992;2023-05-27T00:38:08;10.20;;;5.10;;
65871;SDS011;52653;50.080;21.992;2023-05-27T00:41:01;12.80;;;5.30;;
65871;SDS011;52653;50.080;21.992;2023-05-27T00:43:47;8.70;;;4.40;;
65871;SDS011;52653;50.080;21.992;2023-05-27T00:46:40;9.70;;;5.30;;
65871;SDS011;52653;50.080;21.992;2023-05-27T00:49:33;10.70;;;5.20;;
65871;SDS011;52653;50.080;21.992;2023-05-27T00:52:25;12.90;;;5.00;;
65871;SDS011;52653;50.080;21.992;2023-05-27T00:55:11;11.40;;;5.50;;
65871;SDS011;52653;50.080;21.992;2023-05-27T00:58:03;11.70;;;5.50;;
65871;SDS011;52653;50.080;21.992;2023-05-27T01:01:00;15.30;;;5.60;;
65871;SDS011;52653;50.080;21.992;2023-05-27T01:03:53;11.50;;;5.70;;
65871;SDS011;52653;50.080;21.992;2023-05-27T01:06:55;11.00;;;5.40;;
65871;SDS011;52653;50.080;21.992;2023-05-27T01:09:55;11.20;;;5.30;;
65871;SDS011;52653;50.080;21.992;2023-05-27T01:13:00;10.00;;;4.60;;
65871;SDS011;52653;50.080;21.992;2023-05-27T01:16:08;10.70;;;5.00;;
65871;SDS011;52653;50.080;21.992;2023-05-27T01:19:03;14.60;;;5.70;;
65871;SDS011;52653;50.080;21.992;2023-05-27T01:21:58;11.80;;;5.40;;
65871;SDS011;52653;50.080;21.992;2023-05-27T01:24:52;13.60;;;5.60;;
65871;SDS011;52653;50.080;21.992;2023-05-27T01:27:45;11.00;;;5.30;;
65871;SDS011;52653;50.080;21.992;2023-05-27T01:30:38;13.90;;;5.80;;
65871;SDS011;52653;50.080;21.992;2023-05-27T01:33:31;12.20;;;5.50;;
65871;SDS011;52653;50.080;21.992;2023-05-27T01:36:20;10.80;;;5.30;;
65871;SDS011;52653;50.080;21.992;2023-05-27T01:39:15;11.50;;;4.30;;
65871;SDS011;52653;50.080;21.992;2023-05-27T01:42:09;11.40;;;4.90;;
65871;SDS011;52653;50.080;21.992;2023-05-27T01:45:02;12.30;;;4.60;;
65871;SDS011;52653;50.080;21.992;2023-05-27T01:47:57;9.00;;;4.70;;
65871;SDS011;52653;50.080;21.992;2023-05-27T01:50:53;9.40;;;4.50;;
65871;SDS011;52653;50.080;21.992;2023-05-27T01:53:40;13.10;;;5.00;;
65871;SDS011;52653;50.080;21.992;2023-05-27T01:56:34;11.40;;;4.70;;
65871;SDS011;52653;50.080;21.992;2023-05-27T01:59:27;10.80;;;4.90;;
65871;SDS011;52653;50.080;21.992;2023-05-27T02:02:21;12.10;;;4.60;;
65871;SDS011;52653;50.080;21.992;2023-05-27T02:05:14;11.00;;;4.60;;
65871;SDS011;52653;50.080;21.992;2023-05-27T02:08:08;12.70;;;4.90;;
65871;SDS011;52653;50.080;21.992;2023-05-27T02:11:01;10.80;;;4.80;;
65871;SDS011;52653;50.080;21.992;2023-05-27T02:13:54;9.90;;;4.80;;
65871;SDS011;52653;50.080;21.992;2023-05-27T02:16:47;9.10;;;3.90;;
65871;SDS011;52653;50.080;21.992;2023-05-27T02:19:40;13.50;;;4.40;;
65871;SDS011;52653;50.080;21.992;2023-05-27T02:22:34;9.30;;;4.60;;
65871;SDS011;52653;50.080;21.992;2023-05-27T02:25:27;9.00;;;4.30;;
65871;SDS011;52653;50.080;21.992;2023-05-27T02:28:20;10.20;;;3.90;;
65871;SDS011;52653;50.080;21.992;2023-05-27T02:31:13;10.00;;;3.80;;
65871;SDS011;52653;50.080;21.992;2023-05-27T02:34:06;11.50;;;4.00;;
65871;SDS011;52653;50.080;21.992;2023-05-27T02:36:53;10.50;;;4.10;;
65871;SDS011;52653;50.080;21.992;2023-05-27T02:39:46;10.30;;;3.90;;
65871;SDS011;52653;50.080;21.992;2023-05-27T02:42:39;13.10;;;4.40;;
65871;SDS011;52653;50.080;21.992;2023-05-27T02:45:31;12.60;;;4.50;;
65871;SDS011;52653;50.080;21.992;2023-05-27T02:48:25;9.70;;;4.30;;
65871;SDS011;52653;50.080;21.992;2023-05-27T02:51:18;10.10;;;4.30;;
65871;SDS011;52653;50.080;21.992;2023-05-27T02:54:11;10.40;;;4.10;;
65871;SDS011;52653;50.080;21.992;2023-05-27T02:57:04;12.30;;;4.20;;
65871;SDS011;52653;50.080;21.992;2023-05-27T02:59:58;11.20;;;4.60;;
65871;SDS011;52653;50.080;21.992;2023-05-27T03:02:53;10.20;;;3.70;;
65871;SDS011;52653;50.080;21.992;2023-05-27T03:05:47;11.90;;;4.20;;
65871;SDS011;52653;50.080;21.992;2023-05-27T03:08:40;12.80;;;4.10;;
65871;SDS011;52653;50.080;21.992;2023-05-27T03:11:33;10.40;;;3.80;;
65871;SDS011;52653;50.080;21.992;2023-05-27T03:14:26;11.30;;;4.10;;
65871;SDS011;52653;50.080;21.992;2023-05-27T03:17:20;8.80;;;3.60;;
65871;SDS011;52653;50.080;21.992;2023-05-27T03:20:13;10.80;;;3.70;;
65871;SDS011;52653;50.080;21.992;2023-05-27T03:23:08;12.90;;;4.00;;
65871;SDS011;52653;50.080;21.992;2023-05-27T03:26:01;12.50;;;4.10;;
65871;SDS011;52653;50.080;21.992;2023-05-27T03:28:54;10.90;;;4.30;;
65871;SDS011;52653;50.080;21.992;2023-05-27T03:31:47;9.30;;;3.40;;
65871;SDS011;52653;50.080;21.992;2023-05-27T03:34:40;10.20;;;4.00;;
65871;SDS011;52653;50.080;21.992;2023-05-27T03:37:26;12.60;;;3.40;;
65871;SDS011;52653;50.080;21.992;2023-05-27T03:40:18;10.30;;;3.40;;
65871;SDS011;52653;50.080;21.992;2023-05-27T03:43:02;10.90;;;3.60;;
65871;SDS011;52653;50.080;21.992;2023-05-27T03:45:54;11.60;;;3.40;;
65871;SDS011;52653;50.080;21.992;2023-05-27T03:48:47;11.90;;;3.90;;
65871;SDS011;52653;50.080;21.992;2023-05-27T03:51:40;10.40;;;3.30;;
65871;SDS011;52653;50.080;21.992;2023-05-27T03:54:32;11.50;;;3.40;;
65871;SDS011;52653;50.080;21.992;2023-05-27T03:57:26;13.60;;;4.50;;
65871;SDS011;52653;50.080;21.992;2023-05-27T04:00:20;10.50;;;3.90;;
65871;SDS011;52653;50.080;21.992;2023-05-27T04:03:13;11.80;;;3.90;;
65871;SDS011;52653;50.080;21.992;2023-05-27T04:06:06;12.70;;;4.40;;
65871;SDS011;52653;50.080;21.992;2023-05-27T04:08:59;10.20;;;3.80;;
65871;SDS011;52653;50.080;21.992;2023-05-27T04:11:52;9.90;;;4.10;;
65871;SDS011;52653;50.080;21.992;2023-05-27T04:14:43;8.20;;;3.30;;
65871;SDS011;52653;50.080;21.992;2023-05-27T04:17:37;12.90;;;3.80;;
65871;SDS011;52653;50.080;21.992;2023-05-27T04:20:36;12.00;;;4.00;;
65871;SDS011;52653;50.080;21.992;2023-05-27T04:23:30;11.40;;;3.70;;
65871;SDS011;52653;50.080;21.992;2023-05-27T04:26:21;12.70;;;3.40;;
65871;SDS011;52653;50.080;21.992;2023-05-27T04:29:15;10.80;;;3.20;;
65871;SDS011;52653;50.080;21.992;2023-05-27T04:32:10;10.00;;;3.40;;
65871;SDS011;52653;50.080;21.992;2023-05-27T04:35:03;8.40;;;3.20;;
65871;SDS011;52653;50.080;21.992;2023-05-27T04:38:00;13.20;;;3.70;;
65871;SDS011;52653;50.080;21.992;2023-05-27T04:40:52;11.30;;;3.40;;
65871;SDS011;52653;50.080;21.992;2023-05-27T04:43:45;13.50;;;3.90;;
65871;SDS011;52653;50.080;21.992;2023-05-27T04:46:38;11.60;;;3.30;;
65871;SDS011;52653;50.080;21.992;2023-05-27T04:49:19;10.10;;;3.20;;
65871;SDS011;52653;50.080;21.992;2023-05-27T04:52:12;9.50;;;3.30;;
65871;SDS011;52653;50.080;21.992;2023-05-27T04:55:05;10.10;;;3.70;;
65871;SDS011;52653;50.080;21.992;2023-05-27T04:58:00;10.70;;;3.50;;
65871;SDS011;52653;50.080;21.992;2023-05-27T05:00:53;8.90;;;3.70;;
65871;SDS011;52653;50.080;21.992;2023-05-27T05:03:46;11.90;;;3.30;;
65871;SDS011;52653;50.080;21.992;2023-05-27T05:06:58;12.90;;;3.80;;
65871;SDS011;52653;50.080;21.992;2023-05-27T05:09:50;14.10;;;3.90;;
65871;SDS011;52653;50.080;21.992;2023-05-27T05:12:40;13.20;;;4.10;;
65871;SDS011;52653;50.080;21.992;2023-05-27T05:15:34;12.50;;;3.70;;
65871;SDS011;52653;50.080;21.992;2023-05-27T05:18:19;10.90;;;3.60;;
65871;SDS011;52653;50.080;21.992;2023-05-27T05:21:12;11.60;;;3.80;;
65871;SDS011;52653;50.080;21.992;2023-05-27T05:24:05;11.50;;;3.60;;
65871;SDS011;52653;50.080;21.992;2023-05-27T05:26:59;11.70;;;3.90;;
65871;SDS011;52653;50.080;21.992;2023-05-27T05:29:52;16.30;;;3.80;;
65871;SDS011;52653;50.080;21.992;2023-05-27T05:32:47;11.90;;;3.90;;
65871;SDS011;52653;50.080;21.992;2023-05-27T05:35:40;12.00;;;3.70;;
65871;SDS011;52653;50.080;21.992;2023-05-27T05:38:43;14.20;;;4.50;;
65871;SDS011;52653;50.080;21.992;2023-05-27T05:41:37;10.60;;;4.20;;
65871;SDS011;52653;50.080;21.992;2023-05-27T05:44:30;13.40;;;4.20;;
65871;SDS011;52653;50.080;21.992;2023-05-27T05:47:23;13.20;;;4.00;;
65871;SDS011;52653;50.080;21.992;2023-05-27T05:50:14;13.10;;;3.90;;
65871;SDS011;52653;50.080;21.992;2023-05-27T05:53:00;11.10;;;3.80;;
65871;SDS011;52653;50.080;21.992;2023-05-27T05:55:53;10.30;;;4.00;;
65871;SDS011;52653;50.080;21.992;2023-05-27T05:58:39;10.80;;;3.80;;
65871;SDS011;52653;50.080;21.992;2023-05-27T06:01:32;13.30;;;3.60;;
65871;SDS011;52653;50.080;21.992;2023-05-27T06:04:26;11.10;;;3.40;;
65871;SDS011;52653;50.080;21.992;2023-05-27T06:07:12;13.00;;;3.60;;
65871;SDS011;52653;50.080;21.992;2023-05-27T06:10:11;7.80;;;3.10;;
65871;SDS011;52653;50.080;21.992;2023-05-27T06:13:06;9.00;;;3.50;;
65871;SDS011;52653;50.080;21.992;2023-05-27T06:15:41;10.70;;;3.40;;
65871;SDS011;52653;50.080;21.992;2023-05-27T06:18:34;10.00;;;3.40;;
65871;SDS011;52653;50.080;21.992;2023-05-27T06:21:28;10.20;;;3.10;;
65871;SDS011;52653;50.080;21.992;2023-05-27T06:24:22;10.50;;;3.70;;
65871;SDS011;52653;50.080;21.992;2023-05-27T06:27:15;11.90;;;3.40;;
65871;SDS011;52653;50.080;21.992;2023-05-27T06:30:08;10.10;;;3.50;;
65871;SDS011;52653;50.080;21.992;2023-05-27T06:32:53;12.30;;;3.90;;
65871;SDS011;52653;50.080;21.992;2023-05-27T06:35:48;14.40;;;4.30;;
65871;SDS011;52653;50.080;21.992;2023-05-27T06:38:41;11.30;;;4.30;;
65871;SDS011;52653;50.080;21.992;2023-05-27T06:41:34;10.30;;;3.80;;
65871;SDS011;52653;50.080;21.992;2023-05-27T06:44:25;11.90;;;3.80;;
65871;SDS011;52653;50.080;21.992;2023-05-27T06:47:18;13.50;;;3.80;;
65871;SDS011;52653;50.080;21.992;2023-05-27T06:50:11;11.90;;;3.10;;
65871;SDS011;52653;50.080;21.992;2023-05-27T06:53:03;10.00;;;3.10;;
65871;SDS011;52653;50.080;21.992;2023-05-27T06:55:58;11.80;;;4.00;;
65871;SDS011;52653;50.080;21.992;2023-05-27T06:58:49;10.00;;;3.00;;
65871;SDS011;52653;50.080;21.992;2023-05-27T07:01:32;10.90;;;3.30;;
65871;SDS011;52653;50.080;21.992;2023-05-27T07:04:25;15.40;;;4.00;;
65871;SDS011;52653;50.080;21.992;2023-05-27T07:07:04;11.40;;;3.20;;
65871;SDS011;52653;50.080;21.992;2023-05-27T07:09:43;9.60;;;3.00;;
65871;SDS011;52653;50.080;21.992;2023-05-27T07:12:35;9.40;;;3.00;;
65871;SDS011;52653;50.080;21.992;2023-05-27T07:15:38;10.00;;;3.30;;
65871;SDS011;52653;50.080;21.992;2023-05-27T07:18:31;10.30;;;3.80;;
65871;SDS011;52653;50.080;21.992;2023-05-27T07:21:24;12.30;;;3.30;;
65871;SDS011;52653;50.080;21.992;2023-05-27T07:24:18;10.60;;;3.40;;
65871;SDS011;52653;50.080;21.992;2023-05-27T07:27:01;12.50;;;3.10;;
65871;SDS011;52653;50.080;21.992;2023-05-27T07:29:44;10.00;;;2.90;;
65871;SDS011;52653;50.080;21.992;2023-05-27T07:32:39;10.10;;;2.80;;
65871;SDS011;52653;50.080;21.992;2023-05-27T07:35:24;8.80;;;3.50;;
65871;SDS011;52653;50.080;21.992;2023-05-27T07:38:18;10.70;;;3.20;;
65871;SDS011;52653;50.080;21.992;2023-05-27T07:41:03;9.50;;;3.00;;
65871;SDS011;52653;50.080;21.992;2023-05-27T07:43:48;10.00;;;3.40;;
65871;SDS011;52653;50.080;21.992;2023-05-27T07:46:32;10.80;;;3.60;;
65871;SDS011;52653;50.080;21.992;2023-05-27T07:49:22;10.60;;;3.00;;
65871;SDS011;52653;50.080;21.992;2023-05-27T07:52:16;9.40;;;2.90;;
65871;SDS011;52653;50.080;21.992;2023-05-27T07:55:06;10.10;;;3.00;;
65871;SDS011;52653;50.080;21.992;2023-05-27T07:57:42;9.70;;;3.10;;
65871;SDS011;52653;50.080;21.992;2023-05-27T08:00:37;12.60;;;3.10;;
65871;SDS011;52653;50.080;21.992;2023-05-27T08:03:30;11.50;;;3.30;;
65871;SDS011;52653;50.080;21.992;2023-05-27T08:06:26;9.60;;;3.10;;
65871;SDS011;52653;50.080;21.992;2023-05-27T08:09:20;8.80;;;2.90;;
65871;SDS011;52653;50.080;21.992;2023-05-27T08:12:12;9.50;;;3.30;;
65871;SDS011;52653;50.080;21.992;2023-05-27T08:15:17;8.50;;;2.80;;
65871;SDS011;52653;50.080;21.992;2023-05-27T08:18:09;11.00;;;3.40;;
65871;SDS011;52653;50.080;21.992;2023-05-27T08:21:05;11.00;;;2.90;;
65871;SDS011;52653;50.080;21.992;2023-05-27T08:24:00;8.50;;;3.00;;
65871;SDS011;52653;50.080;21.992;2023-05-27T08:26:57;8.80;;;3.30;;
65871;SDS011;52653;50.080;21.992;2023-05-27T08:29:52;9.60;;;3.00;;
65871;SDS011;52653;50.080;21.992;2023-05-27T08:32:36;9.20;;;3.10;;
65871;SDS011;52653;50.080;21.992;2023-05-27T08:35:30;9.00;;;3.20;;
65871;SDS011;52653;50.080;21.992;2023-05-27T08:38:23;9.20;;;3.30;;
65871;SDS011;52653;50.080;21.992;2023-05-27T08:41:14;7.50;;;2.90;;
65871;SDS011;52653;50.080;21.992;2023-05-27T08:44:08;8.90;;;3.20;;
65871;SDS011;52653;50.080;21.992;2023-05-27T08:47:14;8.30;;;2.90;;
65871;SDS011;52653;50.080;21.992;2023-05-27T08:50:08;10.40;;;3.30;;
65871;SDS011;52653;50.080;21.992;2023-05-27T08:53:02;9.50;;;3.00;;
65871;SDS011;52653;50.080;21.992;2023-05-27T08:55:56;10.40;;;3.30;;
65871;SDS011;52653;50.080;21.992;2023-05-27T08:58:51;10.60;;;3.00;;
65871;SDS011;52653;50.080;21.992;2023-05-27T09:01:37;8.10;;;3.40;;
65871;SDS011;52653;50.080;21.992;2023-05-27T09:04:32;6.40;;;2.80;;
65871;SDS011;52653;50.080;21.992;2023-05-27T09:07:25;8.60;;;3.20;;
65871;SDS011;52653;50.080;21.992;2023-05-27T09:10:18;8.90;;;3.40;;
65871;SDS011;52653;50.080;21.992;2023-05-27T09:13:11;6.70;;;2.70;;
65871;SDS011;52653;50.080;21.992;2023-05-27T09:16:00;7.40;;;3.00;;
65871;SDS011;52653;50.080;21.992;2023-05-27T09:18:54;9.30;;;3.10;;
65871;SDS011;52653;50.080;21.992;2023-05-27T09:21:47;9.50;;;3.30;;
65871;SDS011;52653;50.080;21.992;2023-05-27T09:24:42;9.20;;;3.30;;
65871;SDS011;52653;50.080;21.992;2023-05-27T09:27:35;7.40;;;2.80;;
65871;SDS011;52653;50.080;21.992;2023-05-27T09:30:28;8.00;;;3.70;;
65871;SDS011;52653;50.080;21.992;2023-05-27T09:33:25;7.90;;;3.20;;
65871;SDS011;52653;50.080;21.992;2023-05-27T09:36:14;8.40;;;3.20;;
65871;SDS011;52653;50.080;21.992;2023-05-27T09:39:04;9.30;;;3.10;;
65871;SDS011;52653;50.080;21.992;2023-05-27T09:41:56;9.20;;;3.00;;
65871;SDS011;52653;50.080;21.992;2023-05-27T09:44:46;9.70;;;3.00;;
65871;SDS011;52653;50.080;21.992;2023-05-27T09:47:41;7.30;;;3.00;;
65871;SDS011;52653;50.080;21.992;2023-05-27T09:53:30;9.10;;;2.90;;
65871;SDS011;52653;50.080;21.992;2023-05-27T09:56:25;7.50;;;2.90;;
65871;SDS011;52653;50.080;21.992;2023-05-27T09:59:18;8.20;;;3.20;;
65871;SDS011;52653;50.080;21.992;2023-05-27T10:02:04;8.30;;;2.60;;
65871;SDS011;52653;50.080;21.992;2023-05-27T10:05:01;8.60;;;3.00;;
65871;SDS011;52653;50.080;21.992;2023-05-27T10:07:51;8.10;;;3.00;;
65871;SDS011;52653;50.080;21.992;2023-05-27T10:10:48;8.00;;;2.90;;
65871;SDS011;52653;50.080;21.992;2023-05-27T10:13:42;7.40;;;2.70;;
65871;SDS011;52653;50.080;21.992;2023-05-27T10:16:37;9.20;;;2.80;;
65871;SDS011;52653;50.080;21.992;2023-05-27T10:19:30;6.90;;;2.70;;
65871;SDS011;52653;50.080;21.992;2023-05-27T10:22:15;7.50;;;3.10;;
65871;SDS011;52653;50.080;21.992;2023-05-27T10:25:13;7.30;;;2.90;;
65871;SDS011;52653;50.080;21.992;2023-05-27T10:28:06;7.30;;;3.10;;
65871;SDS011;52653;50.080;21.992;2023-05-27T10:30:50;8.20;;;2.80;;
65871;SDS011;52653;50.080;21.992;2023-05-27T10:33:44;8.10;;;2.90;;
65871;SDS011;52653;50.080;21.992;2023-05-27T10:36:41;7.70;;;2.80;;
65871;SDS011;52653;50.080;21.992;2023-05-27T10:39:34;8.40;;;2.90;;
65871;SDS011;52653;50.080;21.992;2023-05-27T10:42:28;9.20;;;2.80;;
65871;SDS011;52653;50.080;21.992;2023-05-27T10:45:21;7.50;;;3.00;;
65871;SDS011;52653;50.080;21.992;2023-05-27T10:48:19;8.30;;;3.00;;
65871;SDS011;52653;50.080;21.992;2023-05-27T10:51:18;9.10;;;3.10;;
65871;SDS011;52653;50.080;21.992;2023-05-27T10:54:24;6.80;;;2.80;;
65871;SDS011;52653;50.080;21.992;2023-05-27T10:57:20;7.90;;;2.80;;
65871;SDS011;52653;50.080;21.992;2023-05-27T11:00:16;8.30;;;3.00;;
65871;SDS011;52653;50.080;21.992;2023-05-27T11:03:17;8.30;;;3.30;;
65871;SDS011;52653;50.080;21.992;2023-05-27T11:06:12;7.30;;;2.80;;
65871;SDS011;52653;50.080;21.992;2023-05-27T11:09:06;8.70;;;3.10;;
65871;SDS011;52653;50.080;21.992;2023-05-27T11:12:02;8.00;;;2.80;;
65871;SDS011;52653;50.080;21.992;2023-05-27T11:14:56;6.60;;;3.20;;
65871;SDS011;52653;50.080;21.992;2023-05-27T11:17:49;10.20;;;4.10;;
65871;SDS011;52653;50.080;21.992;2023-05-27T11:20:41;10.50;;;3.30;;
65871;SDS011;52653;50.080;21.992;2023-05-27T11:23:34;9.40;;;3.30;;
65871;SDS011;52653;50.080;21.992;2023-05-27T11:26:22;9.40;;;4.20;;
65871;SDS011;52653;50.080;21.992;2023-05-27T11:29:16;7.20;;;3.20;;
65871;SDS011;52653;50.080;21.992;2023-05-27T11:32:09;8.30;;;3.60;;
65871;SDS011;52653;50.080;21.992;2023-05-27T11:35:02;7.80;;;3.00;;
65871;SDS011;52653;50.080;21.992;2023-05-27T11:37:57;6.40;;;2.90;;
65871;SDS011;52653;50.080;21.992;2023-05-27T11:40:49;6.70;;;3.40;;
65871;SDS011;52653;50.080;21.992;2023-05-27T11:43:54;9.60;;;3.10;;
65871;SDS011;52653;50.080;21.992;2023-05-27T11:46:36;8.40;;;3.50;;
65871;SDS011;52653;50.080;21.992;2023-05-27T11:49:31;7.40;;;3.00;;
65871;SDS011;52653;50.080;21.992;2023-05-27T11:52:32;6.70;;;3.00;;
65871;SDS011;52653;50.080;21.992;2023-05-27T11:55:26;7.90;;;3.30;;
65871;SDS011;52653;50.080;21.992;2023-05-27T11:58:19;8.30;;;3.20;;
65871;SDS011;52653;50.080;21.992;2023-05-27T12:01:14;9.40;;;3.70;;
65871;SDS011;52653;50.080;21.992;2023-05-27T12:04:07;8.80;;;3.30;;
65871;SDS011;52653;50.080;21.992;2023-05-27T12:07:02;7.30;;;3.40;;
65871;SDS011;52653;50.080;21.992;2023-05-27T12:10:01;7.00;;;3.30;;
65871;SDS011;52653;50.080;21.992;2023-05-27T12:13:01;7.60;;;3.30;;
65871;SDS011;52653;50.080;21.992;2023-05-27T12:15:55;9.00;;;3.20;;
65871;SDS011;52653;50.080;21.992;2023-05-27T12:18:48;9.70;;;3.60;;
65871;SDS011;52653;50.080;21.992;2023-05-27T12:21:40;7.90;;;3.20;;
65871;SDS011;52653;50.080;21.992;2023-05-27T12:24:33;8.90;;;3.20;;
65871;SDS011;52653;50.080;21.992;2023-05-27T12:27:26;7.40;;;3.40;;
65871;SDS011;52653;50.080;21.992;2023-05-27T12:30:19;6.70;;;2.90;;
65871;SDS011;52653;50.080;21.992;2023-05-27T12:33:12;8.40;;;3.20;;
65871;SDS011;52653;50.080;21.992;2023-05-27T12:36:05;8.70;;;3.20;;
65871;SDS011;52653;50.080;21.992;2023-05-27T12:39:00;7.10;;;3.10;;
65871;SDS011;52653;50.080;21.992;2023-05-27T12:41:54;7.70;;;3.20;;
65871;SDS011;52653;50.080;21.992;2023-05-27T12:44:47;8.30;;;3.30;;
65871;SDS011;52653;50.080;21.992;2023-05-27T12:47:33;7.80;;;2.80;;
65871;SDS011;52653;50.080;21.992;2023-05-27T12:50:26;9.50;;;3.70;;
65871;SDS011;52653;50.080;21.992;2023-05-27T12:53:19;9.10;;;2.90;;
65871;SDS011;52653;50.080;21.992;2023-05-27T12:56:05;11.60;;;5.80;;
65871;SDS011;52653;50.080;21.992;2023-05-27T12:59:06;8.10;;;3.50;;
65871;SDS011;52653;50.080;21.992;2023-05-27T13:02:00;9.50;;;4.00;;
65871;SDS011;52653;50.080;21.992;2023-05-27T13:04:52;11.00;;;4.70;;
65871;SDS011;52653;50.080;21.992;2023-05-27T13:07:54;7.80;;;3.20;;
65871;SDS011;52653;50.080;21.992;2023-05-27T13:10:49;8.60;;;3.70;;
65871;SDS011;52653;50.080;21.992;2023-05-27T13:13:43;7.30;;;3.70;;
65871;SDS011;52653;50.080;21.992;2023-05-27T13:16:36;7.40;;;3.00;;
65871;SDS011;52653;50.080;21.992;2023-05-27T13:19:28;6.80;;;3.20;;
65871;SDS011;52653;50.080;21.992;2023-05-27T13:22:21;8.80;;;3.10;;
65871;SDS011;52653;50.080;21.992;2023-05-27T13:25:15;8.80;;;3.60;;
65871;SDS011;52653;50.080;21.992;2023-05-27T13:28:08;8.60;;;3.10;;
65871;SDS011;52653;50.080;21.992;2023-05-27T13:31:00;7.70;;;3.40;;
65871;SDS011;52653;50.080;21.992;2023-05-27T13:33:47;7.70;;;3.50;;
65871;SDS011;52653;50.080;21.992;2023-05-27T13:36:34;7.40;;;3.00;;
65871;SDS011;52653;50.080;21.992;2023-05-27T13:39:17;6.00;;;3.10;;
65871;SDS011;52653;50.080;21.992;2023-05-27T13:42:10;5.80;;;3.20;;
65871;SDS011;52653;50.080;21.992;2023-05-27T13:45:04;6.60;;;3.40;;
65871;SDS011;52653;50.080;21.992;2023-05-27T13:47:42;9.00;;;3.80;;
65871;SDS011;52653;50.080;21.992;2023-05-27T13:50:18;8.50;;;3.10;;
65871;SDS011;52653;50.080;21.992;2023-05-27T13:52:51;8.40;;;3.30;;
65871;SDS011;52653;50.080;21.992;2023-05-27T13:55:44;8.20;;;3.50;;
65871;SDS011;52653;50.080;21.992;2023-05-27T13:58:37;7.90;;;3.20;;
65871;SDS011;52653;50.080;21.992;2023-05-27T14:01:31;8.20;;;4.10;;
65871;SDS011;52653;50.080;21.992;2023-05-27T14:04:24;7.80;;;4.20;;
65871;SDS011;52653;50.080;21.992;2023-05-27T14:07:17;10.00;;;3.70;;
65871;SDS011;52653;50.080;21.992;2023-05-27T14:10:10;7.40;;;3.50;;
65871;SDS011;52653;50.080;21.992;2023-05-27T14:13:03;8.20;;;3.30;;
65871;SDS011;52653;50.080;21.992;2023-05-27T14:15:57;7.60;;;3.30;;
65871;SDS011;52653;50.080;21.992;2023-05-27T14:18:50;9.10;;;3.20;;
65871;SDS011;52653;50.080;21.992;2023-05-27T14:21:43;7.70;;;2.80;;
65871;SDS011;52653;50.080;21.992;2023-05-27T14:24:36;7.30;;;3.00;;
65871;SDS011;52653;50.080;21.992;2023-05-27T14:27:20;8.90;;;3.30;;
65871;SDS011;52653;50.080;21.992;2023-05-27T14:30:13;8.40;;;3.50;;
65871;SDS011;52653;50.080;21.992;2023-05-27T14:32:58;12.40;;;7.20;;
65871;SDS011;52653;50.080;21.992;2023-05-27T14:35:52;6.50;;;2.90;;
65871;SDS011;52653;50.080;21.992;2023-05-27T14:38:45;8.90;;;2.90;;
65871;SDS011;52653;50.080;21.992;2023-05-27T14:41:37;11.90;;;3.00;;
65871;SDS011;52653;50.080;21.992;2023-05-27T14:44:31;7.10;;;3.00;;
65871;SDS011;52653;50.080;21.992;2023-05-27T14:47:19;7.30;;;2.60;;
65871;SDS011;52653;50.080;21.992;2023-05-27T14:50:12;7.10;;;2.90;;
65871;SDS011;52653;50.080;21.992;2023-05-27T14:52:59;10.60;;;2.90;;
65871;SDS011;52653;50.080;21.992;2023-05-27T14:55:52;10.00;;;2.90;;
65871;SDS011;52653;50.080;21.992;2023-05-27T14:58:45;8.70;;;2.70;;
65871;SDS011;52653;50.080;21.992;2023-05-27T15:01:38;8.40;;;2.50;;
65871;SDS011;52653;50.080;21.992;2023-05-27T15:04:31;7.50;;;2.80;;
65871;SDS011;52653;50.080;21.992;2023-05-27T15:07:24;7.30;;;3.00;;
65871;SDS011;52653;50.080;21.992;2023-05-27T15:10:17;7.70;;;3.00;;
65871;SDS011;52653;50.080;21.992;2023-05-27T15:13:10;7.20;;;2.40;;
65871;SDS011;52653;50.080;21.992;2023-05-27T15:15:54;7.50;;;3.20;;
65871;SDS011;52653;50.080;21.992;2023-05-27T15:18:40;6.40;;;2.50;;
65871;SDS011;52653;50.080;21.992;2023-05-27T15:21:27;9.70;;;2.60;;
65871;SDS011;52653;50.080;21.992;2023-05-27T15:24:21;6.70;;;2.90;;
65871;SDS011;52653;50.080;21.992;2023-05-27T15:27:14;6.20;;;2.50;;
65871;SDS011;52653;50.080;21.992;2023-05-27T15:30:08;7.40;;;2.40;;
65871;SDS011;52653;50.080;21.992;2023-05-27T15:33:01;6.60;;;2.70;;
65871;SDS011;52653;50.080;21.992;2023-05-27T15:35:55;9.50;;;2.90;;
65871;SDS011;52653;50.080;21.992;2023-05-27T15:38:48;7.00;;;3.30;;
65871;SDS011;52653;50.080;21.992;2023-05-27T15:41:41;9.10;;;2.70;;
65871;SDS011;52653;50.080;21.992;2023-05-27T15:44:34;8.50;;;3.00;;
65871;SDS011;52653;50.080;21.992;2023-05-27T15:47:28;7.20;;;3.00;;
65871;SDS011;52653;50.080;21.992;2023-05-27T15:50:23;7.30;;;3.20;;
65871;SDS011;52653;50.080;21.992;2023-05-27T15:53:16;10.40;;;2.90;;
65871;SDS011;52653;50.080;21.992;2023-05-27T15:56:11;8.80;;;3.00;;
65871;SDS011;52653;50.080;21.992;2023-05-27T15:59:04;10.20;;;3.10;;
65871;SDS011;52653;50.080;21.992;2023-05-27T16:01:57;7.00;;;2.80;;
65871;SDS011;52653;50.080;21.992;2023-05-27T16:04:49;8.80;;;3.20;;
65871;SDS011;52653;50.080;21.992;2023-05-27T16:07:42;7.90;;;3.50;;
65871;SDS011;52653;50.080;21.992;2023-05-27T16:10:35;8.80;;;3.70;;
65871;SDS011;52653;50.080;21.992;2023-05-27T16:13:36;9.00;;;4.00;;
65871;SDS011;52653;50.080;21.992;2023-05-27T16:16:28;9.80;;;3.90;;
65871;SDS011;52653;50.080;21.992;2023-05-27T16:19:22;9.90;;;3.50;;
65871;SDS011;52653;50.080;21.992;2023-05-27T16:22:18;8.60;;;3.70;;
65871;SDS011;52653;50.080;21.992;2023-05-27T16:25:11;7.20;;;2.90;;
65871;SDS011;52653;50.080;21.992;2023-05-27T16:28:04;8.80;;;3.10;;
65871;SDS011;52653;50.080;21.992;2023-05-27T16:30:55;7.40;;;2.90;;
65871;SDS011;52653;50.080;21.992;2023-05-27T16:33:49;9.60;;;3.30;;
65871;SDS011;52653;50.080;21.992;2023-05-27T16:36:40;8.00;;;3.20;;
65871;SDS011;52653;50.080;21.992;2023-05-27T16:39:25;8.40;;;3.30;;
65871;SDS011;52653;50.080;21.992;2023-05-27T16:42:18;9.00;;;3.20;;
65871;SDS011;52653;50.080;21.992;2023-05-27T16:45:05;9.10;;;3.10;;
65871;SDS011;52653;50.080;21.992;2023-05-27T16:47:59;9.70;;;3.30;;
65871;SDS011;52653;50.080;21.992;2023-05-27T16:51:12;8.40;;;3.50;;
65871;SDS011;52653;50.080;21.992;2023-05-27T16:54:05;7.30;;;3.10;;
65871;SDS011;52653;50.080;21.992;2023-05-27T16:59:32;6.60;;;2.80;;
65871;SDS011;52653;50.080;21.992;2023-05-27T17:02:13;7.20;;;2.70;;